Terminal Aerodrome Forecast
Issued by NWS

Home | Current Version | Previous Version | Graphics & Text | Print | Product List | Glossary On
Versions: 1 2 3 4 5 6 7 8 9 10 11 12 13 14 15 16
246
FTUS43 KICT 240447 AAC
TAFRSL
TAF AMD
KRSL 240447Z 2405/2424 33022G26KT P6SM OVC012
     FM240800 32017G22KT P6SM OVC013
     FM241500 33022G30KT P6SM OVC022
     FM241800 35022G30KT P6SM OVC035=

USA.gov is the U.S. government's official web portal to all federal, state and local government web resources and services.